Online Now
Guests 2
Members   0

24/7 FSX Server
IP: 71.135.74.145
@ PHKO until 5/27/22



Information and tools for flight simulation use only - NOT for real avaition

File Flight Plans Here

PHKO 270253Z 22011KT 10SM OVC065 27/18 A2994 RMK AO2 SLP137 T02720178 53002 PHKO 262329Z 2700/2724 24009KT P6SM FEW035 BKN050 FM270300 17009KT P6SM SCT035 BKN050 FM270900 11006KT P6SM SCT035 BKN050 FM271500 VRB06KT P6SM SCT035 SCT050 FM272000 24009KT P6SM SCT035 SCT050
Aviation Digital Data Service (ADDS)



Other FSX servers